Jonesville, Illinois
Current Conditions -  °F | °C
As of 1:55 PM on Thursday 23 Oct 2014 (Local Time) from KVYS Reporting Station
Clear Clear  
Wind Chill: 57°   Ceiling: Unl
Heat Index: 57°   Visibility: 10mi
Dew Point: 42°   Wind: 14mph
Humidity: 57%   Direction: 200°SSW
Pressure: 30.12"   Gusts: NA
Location:  41.2837°N, 89.0395°W
Report Text: KVYS 231855Z AUTO 20012KT 10SM CLR 14/06 A3012 RMK AO2 T01410058
Loading
Personal Weather Stations






























Interactive Weather Map
Tropical Storm Tracking
New forecast layout! Learn more

10-Day Weather Forecast

Advertisements
Track Severe Weather on mobile